This is the latest recevied weather packets stored in our database for station/object SP1JT-10. If no packets are shown the sender has not sent any weather packets the latest 10 day(s).
| Time | Temp. | Humidity | Pressure | Rain* | Wind** | Luminosity | Snow |
|---|---|---|---|---|---|---|---|
| 1778395752 | 8.89° C | 81% | 1018.3 hPa | - | - | - | - |
| 1778392754 | 7.78° C | 88% | 1018.4 hPa | - | - | - | - |
| 1778392152 | 7.22° C | 88% | 1018.5 hPa | - | - | - | - |
| 1778390953 | 6.67° C | 90% | 1018.6 hPa | - | - | - | - |
| 1778390353 | 6.11° C | 90% | 1018.7 hPa | - | - | - | - |
| 1778389153 | 5.56° C | 89% | 1018.6 hPa | - | - | - | - |
| 1778388552 | 5° C | 89% | 1018.7 hPa | - | - | - | - |
| 1778387953 | 5° C | 88% | 1018.7 hPa | - | - | - | - |
| 1778383753 | 4.44° C | 85% | 1018.7 hPa | - | - | - | - |
| 1778369353 | 6.67° C | 71% | 1020.9 hPa | - | - | - | - |
| 1778365153 | 7.78° C | 65% | 1021 hPa | - | - | - | - |
| 1778361553 | 8.33° C | 63% | 1021.2 hPa | - | - | - | - |
| 1778360233 | 8.89° C | 62% | 1021.1 hPa | - | - | - | - |
| 1778354354 | 11.11° C | 60% | 1020.8 hPa | - | - | - | - |
| 1778349499 | 13.89° C | 51% | 1020.3 hPa | - | - | - | - |
| 1778347752 | 16.11° C | 46% | 1020.3 hPa | - | - | - | - |
| 1778347153 | 17.22° C | 42% | 1020.2 hPa | - | - | - | - |
| 1778344152 | 18.33° C | 41% | 1020.2 hPa | - | - | - | - |
| 1778341754 | 16.67° C | 45% | 1020.9 hPa | - | - | - | - |
| 1778338754 | 16.67° C | 45% | 1021.2 hPa | - | - | - | - |
| 1778336953 | 17.78° C | 41% | 1021.3 hPa | - | - | - | - |
| 1778335154 | 20° C | 33% | 1020.9 hPa | - | - | - | - |
| 1778320152 | 11.11° C | 62% | 1024 hPa | - | - | - | - |
| 1778306954 | 5° C | 89% | 1024.2 hPa | - | - | - | - |
| 1778298552 | 2.22° C | 93% | 1023.9 hPa | - | - | - | - |
* Rain since midnight (hover to see other rain measurements)
** Current wind speed in m/s (hover to see current wind gust speed)